Актобе

Карта отелей и гостиниц, располагающихся рядом с аэропортом Актобе :

Актобе Актюбинская область 50° 14' 46.2588" N, 57° 12' 19.62" E
Код аэродрома ИКАО
UATT
Код аэродрома RU
УАТТ
Координаты
N50.24618° E057.20545°
Превышение над уровнем моря
225
Основная полоса
13L/31R
Курс магнитный
124,9/304,9
Длина основной ВПП
3230
Ширина основной ВПП
60
Покрытие основной ВПП
Твёрдое (железобетон)
Освещение ВПП
По запросу
Тип: 
Аэродром
Класс аэродрома: 
Международный
Принадлежность: 
ГА
Статус: 
Действующий
Сайт: 
http://www.airport-aktobe.kz/
Страна: 
Казахстан
Регион: 
Актюбинская область
Дополнительная информация: 
Совместного базирования. К территории АД примыкает АРЗ №406 ГА, производящий ремонт самолётов Ан-2 и Як-18, вертолётов Ми-2. на аэродроме базируется военная авиация — учебные самолёты Военного института Сил воздушной обороны Республики Казахстан имени дважды героя Т.Я. Бегельдинова. Институт создан в 1996 на основе бывшего Актюбинского высшего лётного училища гражданской авиации (АВЛУГА) и имеет также учебный грунтовый аэродром "Хлебодаровка".
Погода: 

Авиационная погода в Актобе

Регион: 
Погода METAR: 
UATT 222100Z 05002MPS 9999 BKN018 M15/M18 Q1029 NOSIG RMK QFE752/1002
Время наблюдения
2022-01-22T21:00:00Z
Температура C
-15.0
Точка росы
-18.0
Направление ветра
50
Скорость ветра (узлы)
4
Метео видимость
6.21
Облачность
BKN
Нижняя граница облачности (футы)
1800
Явления погоды
Условия полета
MVFR
Аэропорт подробнее: 
BKN – значительная (рассеянная, разорванная) облачность;
Прогноз TAF: 

Найти трансфер

С помощью этой формы Вы можете найти трансфер из аэропорта Актобе в город, аэропорт или вокзал:

Погода в аэропортах:

Авиационная погода в Челябинске

Регион: 
Погода METAR: 
USCC 222100Z 05001MPS 3600 BR FU NSC M23/M25 Q1031 R27/420350 NOSIG RMK QFE753
Время наблюдения
2022-01-22T21:00:00Z
Температура C
-23.0
Точка росы
-25.0
Направление ветра
50
Скорость ветра (узлы)
2
Метео видимость
2.24
Облачность
CLR
Нижняя граница облачности (футы)
Явления погоды
BR FU
Условия полета
IFR
Аэропорт подробнее: 
CLR — нет облаков ниже 3000 м
BR – дымка (видимость от 1 до 9 км); FU – дым (видимость менее 10 км);

Авиационная погода в Костанае

Регион: 
Погода METAR: 
UAUU 222100Z 32002MPS 3000 BR FEW003 M22/M24 Q1031 NOSIG RMK QBB090 QFE757/1009
Время наблюдения
2022-01-22T21:00:00Z
Температура C
-22.0
Точка росы
-24.0
Направление ветра
320
Скорость ветра (узлы)
4
Метео видимость
1.86
Облачность
FEW
Нижняя граница облачности (футы)
300
Явления погоды
BR
Условия полета
IFR
Аэропорт подробнее: 
FEW – незначительная облачность;
BR – дымка (видимость от 1 до 9 км);

Авиационная погода в Казани

Регион: 
Погода METAR: 
UWKD 222100Z 15007MPS 1600 1400SE R11/P2000N SN BLSN OVC018 M06/M07 Q1022 R11/450336 NOSIG RMK QFE756/1008
Время наблюдения
2022-01-22T21:00:00Z
Температура C
-6.0
Точка росы
-7.0
Направление ветра
150
Скорость ветра (узлы)
14
Метео видимость
0.99
Облачность
OVC
Нижняя граница облачности (футы)
1800
Явления погоды
BLSN SN
Условия полета
LIFR
Аэропорт подробнее: 
OVC – сплошная облачность;
BLSN – метель низовая или общая;

Авиационная погода в Краснодаре

Регион: 
Погода METAR: 
URKK 222100Z 05005MPS 1500 1300NE R05R/P2000N SHSN SCT005 BKN028CB M01/M02 Q1013 R05R/551222 TEMPO 0500 +SHSN BKN002 BKN020CB RMK QFE757
Время наблюдения
2022-01-22T21:00:00Z
Температура C
-1.0
Точка росы
-2.0
Направление ветра
50
Скорость ветра (узлы)
10
Метео видимость
0.93
Облачность
SCT
BKN
Нижняя граница облачности (футы)
500
2800
Явления погоды
SHSN
Условия полета
LIFR
Аэропорт подробнее: 
SCT – разбросанная отдельная облачность; BKN – значительная (рассеянная, разорванная) облачность;
SHSN - ливневой снег;